createdAt,value
2022-11-22T00:00:49.189Z,2.75
2022-11-22T00:03:18.096Z,2.90
2022-11-22T00:05:45.778Z,4.10
2022-11-22T00:08:13.417Z,3.08
2022-11-22T00:10:41.096Z,3.40
2022-11-22T00:13:08.936Z,3.00
2022-11-22T00:15:36.688Z,3.55
2022-11-22T00:18:04.376Z,2.97
2022-11-22T00:20:32.059Z,3.20
2022-11-22T00:22:59.800Z,3.42
2022-11-22T00:25:27.911Z,3.45
2022-11-22T00:27:55.938Z,3.22
2022-11-22T00:30:23.536Z,2.90
2022-11-22T00:32:51.180Z,3.22
2022-11-22T00:35:18.872Z,2.90
2022-11-22T00:37:46.580Z,2.62
2022-11-22T00:40:14.231Z,2.67
2022-11-22T00:42:41.882Z,2.67
2022-11-22T00:45:09.913Z,2.33
2022-11-22T00:47:37.647Z,2.60
2022-11-22T00:50:06.550Z,2.45
2022-11-22T00:52:34.220Z,1.98
2022-11-22T00:55:01.961Z,2.05
2022-11-22T00:57:29.816Z,2.10
2022-11-22T00:59:57.449Z,2.20
2022-11-22T01:02:25.181Z,2.00
2022-11-22T01:04:52.872Z,2.30
2022-11-22T01:07:20.529Z,2.08
2022-11-22T01:09:48.193Z,2.10
2022-11-22T01:12:15.874Z,2.00
2022-11-22T01:14:43.670Z,2.22
2022-11-22T01:17:11.361Z,2.10
2022-11-22T01:19:39.040Z,2.20
2022-11-22T01:22:06.725Z,2.30
2022-11-22T01:24:34.379Z,2.10
2022-11-22T01:27:02.090Z,1.92
2022-11-22T01:29:30.131Z,2.30
2022-11-22T01:31:58.115Z,2.00
2022-11-22T01:34:25.945Z,1.77
2022-11-22T01:36:53.765Z,2.08
2022-11-22T01:39:21.549Z,1.87
2022-11-22T01:41:49.319Z,2.00
2022-11-22T01:44:25.208Z,2.30
2022-11-22T01:47:00.798Z,2.60
2022-11-22T01:49:40.701Z,2.00
2022-11-22T01:52:13.475Z,2.47
2022-11-22T01:54:45.016Z,3.28
2022-11-22T01:57:18.367Z,3.03
2022-11-22T01:59:53.259Z,2.25
2022-11-22T02:02:21.007Z,2.30
2022-11-22T02:04:52.021Z,2.03
2022-11-22T02:07:32.664Z,2.40
2022-11-22T02:10:00.357Z,2.87
2022-11-22T02:12:31.257Z,2.37
2022-11-22T02:15:00.478Z,2.92
2022-11-22T02:17:28.621Z,2.78
2022-11-22T02:19:57.078Z,2.70
2022-11-22T02:23:02.754Z,3.08
2022-11-22T02:25:42.449Z,3.00
2022-11-22T02:28:11.449Z,3.15
2022-11-22T02:30:40.097Z,3.25
2022-11-22T02:33:08.799Z,3.15
2022-11-22T02:35:36.852Z,3.50
2022-11-22T02:38:08.789Z,3.50
2022-11-22T02:40:43.748Z,3.72
2022-11-22T02:43:17.562Z,3.37
2022-11-22T02:45:45.608Z,3.28
2022-11-22T02:48:16.321Z,3.42
2022-11-22T02:50:44.574Z,3.55
2022-11-22T02:53:13.052Z,3.42
2022-11-22T02:55:40.863Z,3.92
2022-11-22T02:58:08.616Z,3.67
2022-11-22T03:00:38.422Z,3.55
2022-11-22T03:03:06.745Z,3.67
2022-11-22T03:05:34.716Z,3.70
2022-11-22T03:08:02.361Z,3.83
2022-11-22T03:10:29.959Z,3.12
2022-11-22T03:12:58.970Z,3.65
2022-11-22T03:15:27.113Z,3.55
2022-11-22T03:18:02.562Z,3.30
2022-11-22T03:20:30.886Z,3.53
2022-11-22T03:22:58.555Z,3.65
2022-11-22T03:25:27.510Z,3.20
2022-11-22T03:27:55.206Z,3.20
2022-11-22T03:30:22.992Z,3.60
2022-11-22T03:32:50.679Z,3.65
2022-11-22T03:35:18.441Z,3.47
2022-11-22T03:37:46.103Z,3.00
2022-11-22T03:40:14.427Z,3.12
2022-11-22T03:42:42.528Z,3.00
2022-11-22T03:45:10.559Z,3.05
2022-11-22T03:47:38.294Z,3.25
2022-11-22T03:50:06.818Z,3.58
2022-11-22T03:52:34.533Z,2.95
2022-11-22T03:55:02.234Z,3.50
2022-11-22T03:57:30.033Z,3.35
2022-11-22T03:59:57.679Z,3.53
2022-11-22T04:02:25.458Z,3.58
2022-11-22T04:04:53.296Z,3.75
2022-11-22T04:07:21.069Z,3.67
2022-11-22T04:09:48.706Z,3.60
2022-11-22T04:12:16.492Z,3.30
2022-11-22T04:15:02.688Z,3.05
2022-11-22T04:17:42.453Z,3.80
2022-11-22T04:20:37.449Z,3.90
2022-11-22T04:23:32.227Z,3.30
2022-11-22T04:26:01.674Z,3.80
2022-11-22T04:28:54.141Z,3.58
2022-11-22T04:31:35.404Z,4.18
2022-11-22T04:34:03.178Z,3.80
2022-11-22T04:36:30.915Z,3.10
2022-11-22T04:38:58.555Z,4.05
2022-11-22T04:41:26.214Z,3.22
2022-11-22T04:44:14.183Z,3.45
2022-11-22T04:46:41.920Z,2.97
2022-11-22T04:49:09.555Z,4.10
2022-11-22T04:51:55.659Z,2.92
2022-11-22T04:54:23.355Z,3.50
2022-11-22T04:56:51.081Z,3.40
2022-11-22T04:59:18.744Z,3.40
2022-11-22T05:01:46.499Z,4.00
2022-11-22T05:04:14.164Z,3.53
2022-11-22T05:06:41.861Z,3.60
2022-11-22T05:09:09.771Z,3.45
2022-11-22T05:11:37.456Z,3.28
2022-11-22T05:14:05.600Z,3.47
2022-11-22T05:16:33.286Z,3.40
2022-11-22T05:19:00.987Z,3.20
2022-11-22T05:21:30.224Z,2.67
2022-11-22T05:23:58.217Z,3.20
2022-11-22T05:26:29.300Z,3.00
2022-11-22T05:28:59.288Z,2.92
2022-11-22T05:31:28.545Z,3.22
2022-11-22T05:33:58.588Z,3.58
2022-11-22T05:36:26.886Z,3.22
2022-11-22T05:38:56.423Z,3.17
2022-11-22T05:41:24.084Z,3.20
2022-11-22T05:43:51.942Z,3.33
2022-11-22T05:46:24.743Z,3.22
2022-11-22T05:48:54.083Z,2.87
2022-11-22T05:51:24.260Z,3.12
2022-11-22T05:53:53.724Z,3.03
2022-11-22T05:56:24.124Z,3.20
2022-11-22T05:58:52.429Z,3.50
2022-11-22T06:01:23.001Z,2.90
2022-11-22T06:03:51.445Z,3.40
2022-11-22T06:06:19.256Z,3.78
2022-11-22T06:08:49.079Z,3.05
2022-11-22T06:11:22.746Z,3.50
2022-11-22T06:13:56.099Z,3.20
2022-11-22T06:16:24.437Z,2.72
2022-11-22T06:18:52.150Z,3.08
2022-11-22T06:21:25.746Z,3.00
2022-11-22T06:23:55.747Z,3.00
2022-11-22T06:26:24.758Z,2.67
2022-11-22T06:28:52.936Z,2.90
2022-11-22T06:31:23.122Z,2.58
2022-11-22T06:33:51.362Z,2.50
2022-11-22T06:36:24.858Z,2.35
2022-11-22T06:38:52.827Z,2.60
2022-11-22T06:41:23.165Z,2.87
2022-11-22T06:43:52.760Z,2.85
2022-11-22T06:46:23.305Z,2.40
2022-11-22T06:48:51.625Z,2.65
2022-11-22T06:51:22.512Z,3.22
2022-11-22T06:53:51.067Z,2.90
2022-11-22T06:56:21.222Z,3.30
2022-11-22T06:58:50.339Z,2.62
2022-11-22T07:01:29.752Z,2.80
2022-11-22T07:03:59.338Z,2.83
2022-11-22T07:06:32.599Z,3.22
2022-11-22T07:09:01.763Z,2.78
2022-11-22T07:11:32.834Z,2.10
2022-11-22T07:14:07.457Z,2.85
2022-11-22T07:16:37.221Z,1.92
2022-11-22T07:19:05.286Z,2.55
2022-11-22T07:21:33.701Z,1.70
2022-11-22T07:24:01.340Z,2.00
2022-11-22T07:26:29.630Z,2.00
2022-11-22T07:28:57.741Z,1.62
2022-11-22T07:31:25.765Z,1.62
2022-11-22T07:33:53.469Z,1.92
2022-11-22T07:36:23.198Z,2.20
2022-11-22T07:38:51.913Z,2.03
2022-11-22T07:41:20.853Z,2.12
2022-11-22T07:43:48.652Z,1.98
2022-11-22T07:46:34.091Z,2.22
2022-11-22T07:49:03.788Z,2.12
2022-11-22T07:51:32.291Z,2.17
2022-11-22T07:54:00.065Z,1.98
2022-11-22T07:56:28.003Z,1.75
2022-11-22T07:58:56.935Z,2.20
2022-11-22T08:01:24.893Z,2.05
2022-11-22T08:03:52.730Z,1.90
2022-11-22T08:06:20.461Z,2.28
2022-11-22T08:08:48.246Z,1.75
2022-11-22T08:11:15.924Z,1.98
2022-11-22T08:13:43.941Z,1.87
2022-11-22T08:16:14.708Z,1.42
2022-11-22T08:18:46.783Z,2.08
2022-11-22T08:21:15.636Z,2.15
2022-11-22T08:23:45.570Z,2.45
2022-11-22T08:26:15.491Z,1.92
2022-11-22T08:28:44.497Z,1.98
2022-11-22T08:31:15.385Z,2.40
2022-11-22T08:33:43.417Z,1.95
2022-11-22T08:36:11.372Z,2.00
2022-11-22T08:38:39.891Z,2.40
2022-11-22T08:41:08.504Z,2.30
2022-11-22T08:43:36.292Z,2.10
2022-11-22T08:46:05.001Z,2.22
2022-11-22T08:48:34.298Z,2.60
2022-11-22T08:51:07.732Z,2.17
2022-11-22T08:53:37.803Z,2.17
2022-11-22T08:56:07.659Z,1.83
2022-11-22T08:58:35.378Z,2.00
2022-11-22T09:01:07.184Z,2.05
2022-11-22T09:03:36.825Z,2.05
2022-11-22T09:09:08.613Z,1.67
2022-11-22T09:11:42.207Z,2.10
2022-11-22T09:14:10.051Z,1.60
2022-11-22T09:16:37.721Z,1.87
2022-11-22T09:19:05.529Z,1.85
2022-11-22T09:21:33.205Z,1.98
2022-11-22T09:24:00.917Z,2.67
2022-11-22T09:26:28.728Z,2.12
2022-11-22T09:28:58.076Z,1.60
2022-11-22T09:31:25.755Z,1.85
2022-11-22T09:33:53.622Z,1.90
2022-11-22T09:36:24.154Z,1.48
2022-11-22T09:38:52.759Z,1.67
2022-11-22T09:41:40.733Z,1.62
2022-11-22T09:44:29.751Z,1.55
2022-11-22T09:47:25.510Z,1.60
2022-11-22T09:50:05.158Z,1.67
2022-11-22T09:52:47.561Z,1.98
2022-11-22T09:55:42.175Z,1.30
2022-11-22T09:58:33.175Z,1.92
2022-11-22T10:01:35.290Z,1.65
2022-11-22T10:04:05.781Z,1.60
2022-11-22T10:06:40.387Z,1.42
2022-11-22T10:09:27.858Z,1.33
2022-11-22T10:12:00.915Z,1.50
2022-11-22T10:14:35.554Z,1.90
2022-11-22T10:17:44.912Z,1.42
2022-11-22T10:20:15.276Z,1.92
2022-11-22T10:22:43.150Z,1.48
2022-11-22T10:25:25.502Z,1.50
2022-11-22T10:28:13.568Z,1.33
2022-11-22T10:30:47.527Z,1.35
2022-11-22T10:33:45.024Z,2.12
2022-11-22T10:36:24.684Z,1.40
2022-11-22T10:39:18.842Z,1.40
2022-11-22T10:41:55.472Z,1.62
2022-11-22T10:44:39.920Z,1.40
2022-11-22T10:47:10.558Z,1.55
2022-11-22T10:50:14.029Z,1.75
2022-11-22T10:52:58.616Z,1.60
2022-11-22T10:55:41.177Z,1.50
2022-11-22T10:58:21.268Z,1.98
2022-11-22T11:00:57.236Z,2.12
2022-11-22T11:03:37.263Z,1.30
2022-11-22T11:06:24.463Z,1.50
2022-11-22T11:09:54.825Z,1.83
2022-11-22T11:11:53.284Z,1.80
2022-11-22T11:14:30.754Z,1.20
2022-11-22T11:17:00.624Z,1.60
2022-11-22T11:19:35.238Z,1.37
2022-11-22T11:22:30.521Z,1.48
2022-11-22T11:25:42.105Z,1.08
2022-11-22T11:28:23.502Z,1.25
2022-11-22T11:30:56.185Z,1.50
2022-11-22T11:33:29.979Z,1.65
2022-11-22T11:36:09.878Z,1.37
2022-11-22T11:38:43.512Z,1.12
2022-11-22T11:41:38.677Z,1.00
2022-11-22T11:44:34.014Z,1.10
2022-11-22T11:47:02.329Z,1.70
2022-11-22T11:49:32.642Z,1.10
2022-11-22T11:52:04.647Z,1.30
2022-11-22T11:54:44.034Z,1.10
2022-11-22T11:57:26.485Z,1.42
2022-11-22T11:59:55.439Z,1.20
2022-11-22T12:02:26.407Z,1.33
2022-11-22T12:05:00.509Z,1.00
2022-11-22T12:07:48.991Z,1.33
2022-11-22T12:10:41.844Z,0.82
2022-11-22T12:13:28.621Z,1.33
2022-11-22T12:16:21.989Z,1.48
2022-11-22T12:18:52.703Z,1.37
2022-11-22T12:21:51.037Z,1.55
2022-11-22T12:27:12.415Z,1.02
2022-11-22T12:29:42.729Z,1.20
2022-11-22T12:32:16.423Z,0.80
2022-11-22T12:34:56.042Z,1.15
2022-11-22T12:37:37.402Z,0.95
2022-11-22T12:40:15.199Z,1.27
2022-11-22T12:42:50.211Z,1.12
2022-11-22T12:45:46.683Z,1.27
2022-11-22T12:48:22.156Z,1.10
2022-11-22T12:50:55.760Z,1.45
2022-11-22T12:53:31.797Z,1.30
2022-11-22T12:56:03.415Z,0.98
2022-11-22T12:58:46.280Z,1.23
2022-11-22T13:01:50.588Z,0.90
2022-11-22T13:04:30.011Z,1.00
2022-11-22T13:07:20.957Z,1.00
2022-11-22T13:10:04.486Z,1.30
2022-11-22T13:12:38.559Z,1.10
2022-11-22T13:15:06.527Z,1.20
2022-11-22T13:17:37.113Z,1.02
2022-11-22T13:20:10.188Z,1.00
2022-11-22T13:22:43.605Z,1.00
2022-11-22T13:25:33.107Z,0.82
2022-11-22T13:28:06.605Z,1.17
2022-11-22T13:30:38.243Z,1.15
2022-11-22T13:33:07.492Z,1.02
2022-11-22T13:35:36.855Z,1.00
2022-11-22T13:38:11.345Z,1.05
2022-11-22T13:40:46.380Z,1.00
2022-11-22T13:43:22.398Z,1.12
2022-11-22T13:45:52.698Z,1.00
2022-11-22T13:48:42.321Z,0.90
2022-11-22T13:51:15.833Z,1.02
2022-11-22T13:53:45.802Z,1.83
2022-11-22T13:56:16.564Z,1.20
2022-11-22T13:59:09.482Z,1.00
2022-11-22T14:01:37.196Z,1.08
2022-11-22T14:04:25.834Z,0.90
2022-11-22T14:06:56.879Z,1.15
2022-11-22T14:09:54.611Z,1.15
2022-11-22T14:12:51.879Z,0.80
2022-11-22T14:15:49.050Z,1.10
2022-11-22T14:18:39.317Z,1.20
2022-11-22T14:21:15.567Z,0.90
2022-11-22T14:24:04.858Z,1.12
2022-11-22T14:26:42.763Z,1.00
2022-11-22T14:29:53.357Z,0.95
2022-11-22T14:32:24.440Z,1.02
2022-11-22T14:35:04.326Z,0.98
2022-11-22T14:37:34.869Z,1.42
2022-11-22T14:40:08.315Z,1.00
2022-11-22T14:42:39.150Z,1.10
2022-11-22T14:45:12.665Z,1.40
2022-11-22T14:47:44.545Z,1.00
2022-11-22T14:50:23.494Z,0.88
2022-11-22T14:52:52.250Z,1.00
2022-11-22T14:55:23.743Z,1.20
2022-11-22T14:58:00.951Z,2.55
2022-11-22T15:00:49.541Z,0.82
2022-11-22T15:09:14.903Z,1.40
2022-11-22T15:09:20.995Z,1.70
2022-11-22T15:10:30.926Z,0.95
2022-11-22T15:13:16.469Z,1.00
2022-11-22T15:59:41.056Z,1.20
2022-11-22T16:02:17.295Z,1.30
2022-11-22T16:06:04.594Z,1.25
2022-11-22T16:07:49.266Z,0.90
2022-11-22T16:10:23.935Z,1.00
2022-11-22T16:12:52.798Z,1.58
2022-11-22T16:15:37.304Z,1.30
2022-11-22T16:18:25.811Z,1.10
2022-11-22T16:21:00.230Z,1.30
2022-11-22T16:23:29.992Z,1.17
2022-11-22T16:26:23.123Z,1.17
2022-11-22T16:28:52.887Z,1.15
2022-11-22T16:31:24.988Z,1.58
2022-11-22T16:33:54.110Z,1.50
2022-11-22T16:36:23.697Z,1.27
2022-11-22T16:38:52.180Z,1.75
2022-11-22T16:41:22.548Z,2.00
2022-11-22T16:44:02.680Z,1.48
2022-11-22T16:46:30.875Z,1.60
2022-11-22T16:48:58.620Z,1.62
2022-11-22T16:51:31.684Z,1.60
2022-11-22T16:54:01.719Z,1.80
2022-11-22T16:56:31.451Z,1.35
2022-11-22T16:58:59.878Z,1.45
2022-11-22T17:01:33.767Z,1.60
2022-11-22T17:04:03.892Z,1.00
2022-11-22T17:06:32.958Z,1.87
2022-11-22T17:09:01.676Z,1.45
2022-11-22T17:11:32.804Z,1.45
2022-11-22T17:14:01.293Z,2.05
2022-11-22T17:16:29.038Z,1.40
2022-11-22T17:18:56.784Z,1.70
2022-11-22T17:21:35.824Z,1.85
2022-11-22T17:24:07.669Z,1.73
2022-11-22T17:26:35.869Z,1.12
2022-11-22T17:29:03.568Z,1.05
2022-11-22T17:31:31.443Z,1.40
2022-11-22T17:34:00.270Z,1.52
2022-11-22T17:36:30.724Z,0.90
2022-11-22T17:38:59.702Z,1.25
2022-11-22T17:41:28.135Z,1.27
2022-11-22T17:43:55.917Z,1.10
2022-11-22T17:46:24.470Z,1.10
2022-11-22T17:48:59.714Z,1.30
2022-11-22T17:51:29.384Z,1.75
2022-11-22T17:53:59.344Z,1.12
2022-11-22T17:56:28.292Z,1.37
2022-11-22T17:58:55.909Z,1.42
2022-11-22T18:01:24.443Z,1.40
2022-11-22T18:03:52.525Z,1.83
2022-11-22T18:06:24.531Z,1.23
2022-11-22T18:08:52.182Z,1.45
2022-11-22T18:11:19.900Z,1.92
2022-11-22T18:13:47.765Z,1.58
2022-11-22T18:16:18.331Z,1.50
2022-11-22T18:18:56.670Z,1.50
2022-11-22T18:21:25.738Z,1.58
2022-11-22T18:23:53.551Z,1.60
2022-11-22T18:26:38.770Z,1.15
2022-11-22T18:31:55.866Z,2.20
2022-11-22T18:34:23.995Z,1.73
2022-11-22T18:36:56.003Z,1.20
2022-11-22T18:39:27.527Z,1.48
2022-11-22T18:41:55.229Z,1.65
2022-11-22T18:44:22.970Z,1.65
2022-11-22T18:46:50.657Z,1.50
2022-11-22T18:49:18.572Z,1.60
2022-11-22T18:51:46.408Z,1.17
2022-11-22T18:54:14.423Z,1.58
2022-11-22T18:56:42.160Z,1.42
2022-11-22T18:59:13.530Z,1.50
2022-11-22T19:01:41.860Z,0.98
2022-11-22T19:04:13.815Z,1.27
2022-11-22T19:06:42.941Z,1.30
2022-11-22T19:09:11.194Z,1.08
2022-11-22T19:11:38.909Z,1.50
2022-11-22T19:14:07.426Z,1.30
2022-11-22T19:16:35.132Z,1.27
2022-11-22T19:19:02.883Z,1.10
2022-11-22T19:21:31.304Z,0.98
2022-11-22T19:23:59.199Z,1.08
2022-11-22T19:26:28.707Z,1.10
2022-11-22T19:28:58.536Z,0.80
2022-11-22T19:31:29.880Z,0.90
2022-11-22T19:33:57.705Z,1.35
2022-11-22T19:36:32.689Z,1.23
2022-11-22T19:39:01.829Z,0.85
2022-11-22T19:41:29.913Z,1.00
2022-11-22T19:43:58.192Z,1.10
2022-11-22T19:46:27.069Z,1.00
2022-11-22T19:48:57.316Z,1.20
2022-11-22T19:51:26.021Z,1.10
2022-11-22T19:53:55.008Z,0.98
2022-11-22T19:56:22.831Z,1.37
2022-11-22T19:58:52.861Z,1.70
2022-11-22T20:01:22.119Z,1.20
2022-11-22T20:03:58.932Z,1.55
2022-11-22T20:06:27.528Z,1.30
2022-11-22T20:09:01.399Z,1.48
2022-11-22T20:11:29.795Z,1.00
2022-11-22T20:13:58.562Z,0.80
2022-11-22T20:16:29.057Z,1.00
2022-11-22T20:19:02.191Z,1.52
2022-11-22T20:21:34.994Z,1.27
2022-11-22T20:24:03.566Z,1.20
2022-11-22T20:26:32.737Z,1.10
2022-11-22T20:29:02.119Z,1.02
2022-11-22T20:31:34.763Z,1.17
2022-11-22T20:34:03.530Z,1.10
2022-11-22T20:36:34.266Z,0.70
2022-11-22T20:39:08.391Z,0.98
2022-11-22T20:41:38.603Z,1.00
2022-11-22T20:44:06.778Z,2.35
2022-11-22T20:46:37.207Z,1.10
2022-11-22T20:49:05.103Z,1.08
2022-11-22T20:51:33.301Z,0.98
2022-11-22T20:54:01.160Z,1.12
2022-11-22T20:56:30.017Z,1.20
2022-11-22T20:58:57.832Z,0.90
2022-11-22T21:01:28.102Z,1.00
2022-11-22T21:03:56.533Z,1.10
2022-11-22T21:06:25.513Z,1.15
2022-11-22T21:08:53.232Z,1.60
2022-11-22T21:11:29.432Z,1.10
2022-11-22T21:13:58.300Z,1.20
2022-11-22T21:16:28.823Z,0.93
2022-11-22T21:19:02.475Z,1.08
2022-11-22T21:21:31.292Z,1.10
2022-11-22T21:24:01.543Z,0.90
2022-11-22T21:26:30.251Z,1.27
2022-11-22T21:28:58.822Z,0.82
2022-11-22T21:31:27.478Z,1.62
2022-11-22T21:33:55.213Z,1.27
2022-11-22T21:36:23.037Z,1.42
2022-11-22T21:38:50.732Z,1.00
2022-11-22T21:41:39.358Z,0.82
2022-11-22T21:44:08.724Z,0.85
2022-11-22T21:46:36.425Z,1.05
2022-11-22T21:49:04.537Z,0.93
2022-11-22T21:51:33.001Z,0.90
2022-11-22T21:54:02.269Z,1.35
2022-11-22T21:56:30.548Z,1.00
2022-11-22T21:58:58.565Z,1.40
2022-11-22T22:01:26.873Z,1.20
2022-11-22T22:03:55.507Z,0.90
2022-11-22T22:06:23.620Z,1.20
2022-11-22T22:08:51.426Z,1.15
2022-11-22T22:11:19.162Z,0.90
2022-11-22T22:13:46.884Z,1.23
2022-11-22T22:16:19.707Z,1.23
2022-11-22T22:18:47.550Z,1.30
2022-11-22T22:21:16.221Z,1.02
2022-11-22T22:23:45.275Z,1.30
2022-11-22T22:26:15.861Z,1.30
2022-11-22T22:28:45.365Z,1.20
2022-11-22T22:31:17.883Z,0.90
2022-11-22T22:33:46.714Z,1.10
2022-11-22T22:36:14.966Z,1.08
2022-11-22T22:38:43.036Z,1.25
2022-11-22T22:41:12.732Z,0.95
2022-11-22T22:43:43.111Z,0.88
2022-11-22T22:46:18.003Z,1.00
2022-11-22T22:48:46.194Z,0.70
2022-11-22T22:51:17.989Z,0.93
2022-11-22T22:53:46.974Z,0.90
2022-11-22T22:56:16.478Z,1.35
2022-11-22T22:58:44.281Z,1.20
2022-11-22T23:01:18.480Z,1.12
2022-11-22T23:03:54.276Z,0.80
2022-11-22T23:06:26.129Z,0.90
2022-11-22T23:08:54.681Z,0.90
2022-11-22T23:11:46.788Z,0.90
2022-11-22T23:14:16.598Z,1.08
2022-11-22T23:16:44.292Z,0.80
2022-11-22T23:19:12.158Z,1.25
2022-11-22T23:21:40.156Z,0.95
2022-11-22T23:24:08.971Z,0.73
2022-11-22T23:26:37.004Z,1.10
2022-11-22T23:29:05.405Z,1.05
2022-11-22T23:31:33.549Z,1.05
2022-11-22T23:34:02.548Z,1.15
2022-11-22T23:36:31.595Z,1.20
2022-11-22T23:39:00.531Z,1.90
2022-11-22T23:41:28.270Z,2.83
2022-11-22T23:43:57.615Z,2.10
2022-11-22T23:46:28.615Z,1.40
2022-11-22T23:48:58.862Z,1.37
2022-11-22T23:51:28.670Z,2.28
2022-11-22T23:53:57.728Z,1.60
2022-11-22T23:56:25.964Z,1.65
2022-11-22T23:58:53.928Z,1.62
